Terminal Aerodrome Forecast
Issued by NWS

Home | Current Version | Previous Version | Text Only | Print | Product List | Glossary On
Versions: 1 2 3 4 5 6 7 8 9 10 11 12 13
000
FTUS44 KCRP 011145 CCA
TAFLRD
TAF COR
KLRD 011145Z 0112/0212 12011KT P6SM SCT018 BKN100
      TEMPO 0112/0116 5SM -SHRA BKN018
     FM011600 15015KT P6SM VCTS SCT025 BKN040CB BKN120
      TEMPO 0116/0120 VRB18G30KT 4SM TSRA BKN025CB
     FM020000 13015KT P6SM VCTS SCT040CB BKN150
     FM020400 14010KT P6SM SCT025 SCT150
     FM020800 15008KT P6SM BKN018 BKN150=

USA.gov is the U.S. government's official web portal to all federal, state and local government web resources and services.